sensor_id;sensor_type;location;lat;lon;timestamp;P1;durP1;ratioP1;P2;durP2;ratioP2
18360;SDS011;9308;48.550;9.108;2023-06-01T00:00:13;5.60;;;4.20;;
18360;SDS011;9308;48.550;9.108;2023-06-01T00:02:39;5.07;;;4.67;;
18360;SDS011;9308;48.550;9.108;2023-06-01T00:05:06;6.30;;;4.50;;
18360;SDS011;9308;48.550;9.108;2023-06-01T00:07:32;5.87;;;5.27;;
18360;SDS011;9308;48.550;9.108;2023-06-01T00:09:58;5.70;;;5.13;;
18360;SDS011;9308;48.550;9.108;2023-06-01T00:12:25;7.13;;;4.63;;
18360;SDS011;9308;48.550;9.108;2023-06-01T00:14:51;6.40;;;5.50;;
18360;SDS011;9308;48.550;9.108;2023-06-01T00:17:16;6.30;;;4.97;;
18360;SDS011;9308;48.550;9.108;2023-06-01T00:19:42;6.40;;;5.00;;
18360;SDS011;9308;48.550;9.108;2023-06-01T00:22:10;5.20;;;4.70;;
18360;SDS011;9308;48.550;9.108;2023-06-01T00:24:36;6.40;;;5.73;;
18360;SDS011;9308;48.550;9.108;2023-06-01T00:27:02;5.80;;;5.20;;
18360;SDS011;9308;48.550;9.108;2023-06-01T00:29:27;5.60;;;5.10;;
18360;SDS011;9308;48.550;9.108;2023-06-01T00:31:53;6.27;;;5.37;;
18360;SDS011;9308;48.550;9.108;2023-06-01T00:34:19;5.93;;;5.33;;
18360;SDS011;9308;48.550;9.108;2023-06-01T00:36:44;5.90;;;5.13;;
18360;SDS011;9308;48.550;9.108;2023-06-01T00:39:09;6.00;;;4.63;;
18360;SDS011;9308;48.550;9.108;2023-06-01T00:41:35;9.23;;;5.10;;
18360;SDS011;9308;48.550;9.108;2023-06-01T00:44:00;5.43;;;4.93;;
18360;SDS011;9308;48.550;9.108;2023-06-01T00:46:26;5.20;;;4.80;;
18360;SDS011;9308;48.550;9.108;2023-06-01T00:48:54;7.00;;;5.10;;
18360;SDS011;9308;48.550;9.108;2023-06-01T00:51:20;6.30;;;5.63;;
18360;SDS011;9308;48.550;9.108;2023-06-01T00:53:46;5.83;;;5.23;;
18360;SDS011;9308;48.550;9.108;2023-06-01T00:56:12;5.60;;;5.10;;
18360;SDS011;9308;48.550;9.108;2023-06-01T00:58:38;5.70;;;4.57;;
18360;SDS011;9308;48.550;9.108;2023-06-01T01:01:04;5.70;;;4.90;;
18360;SDS011;9308;48.550;9.108;2023-06-01T01:03:29;6.17;;;5.57;;
18360;SDS011;9308;48.550;9.108;2023-06-01T01:06:06;8.73;;;5.63;;
18360;SDS011;9308;48.550;9.108;2023-06-01T01:08:41;6.10;;;5.10;;
18360;SDS011;9308;48.550;9.108;2023-06-01T01:11:32;6.17;;;5.57;;
18360;SDS011;9308;48.550;9.108;2023-06-01T01:16:50;7.40;;;6.70;;
18360;SDS011;9308;48.550;9.108;2023-06-01T01:19:29;9.40;;;6.90;;
18360;SDS011;9308;48.550;9.108;2023-06-01T01:29:42;6.80;;;6.20;;
18360;SDS011;9308;48.550;9.108;2023-06-01T01:32:11;7.13;;;6.43;;
18360;SDS011;9308;48.550;9.108;2023-06-01T01:34:37;7.30;;;6.13;;
18360;SDS011;9308;48.550;9.108;2023-06-01T01:37:04;6.70;;;6.10;;
18360;SDS011;9308;48.550;9.108;2023-06-01T01:39:30;6.63;;;6.00;;
18360;SDS011;9308;48.550;9.108;2023-06-01T01:41:56;5.67;;;5.17;;
18360;SDS011;9308;48.550;9.108;2023-06-01T01:44:21;7.30;;;6.00;;
18360;SDS011;9308;48.550;9.108;2023-06-01T01:46:57;6.27;;;5.67;;
18360;SDS011;9308;48.550;9.108;2023-06-01T01:49:40;5.57;;;5.10;;
18360;SDS011;9308;48.550;9.108;2023-06-01T01:54:45;6.87;;;6.17;;
18360;SDS011;9308;48.550;9.108;2023-06-01T01:57:12;6.33;;;5.63;;
18360;SDS011;9308;48.550;9.108;2023-06-01T01:59:40;7.17;;;6.13;;
18360;SDS011;9308;48.550;9.108;2023-06-01T02:02:06;6.40;;;5.90;;
18360;SDS011;9308;48.550;9.108;2023-06-01T02:04:32;5.60;;;5.20;;
18360;SDS011;9308;48.550;9.108;2023-06-01T02:06:57;6.00;;;5.27;;
18360;SDS011;9308;48.550;9.108;2023-06-01T02:09:23;6.50;;;5.83;;
18360;SDS011;9308;48.550;9.108;2023-06-01T02:11:49;7.10;;;6.30;;
18360;SDS011;9308;48.550;9.108;2023-06-01T02:14:14;6.70;;;6.10;;
18360;SDS011;9308;48.550;9.108;2023-06-01T02:16:39;6.00;;;5.43;;
18360;SDS011;9308;48.550;9.108;2023-06-01T02:19:05;5.70;;;5.27;;
18360;SDS011;9308;48.550;9.108;2023-06-01T02:21:31;6.30;;;5.80;;
18360;SDS011;9308;48.550;9.108;2023-06-01T02:23:56;5.90;;;5.40;;
18360;SDS011;9308;48.550;9.108;2023-06-01T02:26:29;10.10;;;6.20;;
18360;SDS011;9308;48.550;9.108;2023-06-01T02:28:56;7.70;;;6.23;;
18360;SDS011;9308;48.550;9.108;2023-06-01T02:31:21;5.97;;;5.33;;
18360;SDS011;9308;48.550;9.108;2023-06-01T02:33:47;6.50;;;5.90;;
18360;SDS011;9308;48.550;9.108;2023-06-01T02:36:13;6.43;;;5.90;;
18360;SDS011;9308;48.550;9.108;2023-06-01T02:38:41;6.83;;;6.00;;
18360;SDS011;9308;48.550;9.108;2023-06-01T02:41:07;6.27;;;5.77;;
18360;SDS011;9308;48.550;9.108;2023-06-01T02:43:36;6.70;;;6.07;;
18360;SDS011;9308;48.550;9.108;2023-06-01T02:46:01;6.30;;;5.77;;
18360;SDS011;9308;48.550;9.108;2023-06-01T02:48:28;6.40;;;5.70;;
18360;SDS011;9308;48.550;9.108;2023-06-01T02:50:54;6.87;;;6.17;;
18360;SDS011;9308;48.550;9.108;2023-06-01T02:53:20;6.33;;;5.47;;
18360;SDS011;9308;48.550;9.108;2023-06-01T02:55:46;6.90;;;6.07;;
18360;SDS011;9308;48.550;9.108;2023-06-01T02:58:11;8.30;;;5.90;;
18360;SDS011;9308;48.550;9.108;2023-06-01T03:00:42;6.70;;;5.80;;
18360;SDS011;9308;48.550;9.108;2023-06-01T03:03:07;6.00;;;5.50;;
18360;SDS011;9308;48.550;9.108;2023-06-01T03:05:33;6.33;;;5.80;;
18360;SDS011;9308;48.550;9.108;2023-06-01T03:08:00;7.00;;;6.23;;
18360;SDS011;9308;48.550;9.108;2023-06-01T03:10:26;6.63;;;6.13;;
18360;SDS011;9308;48.550;9.108;2023-06-01T03:12:52;6.53;;;6.03;;
18360;SDS011;9308;48.550;9.108;2023-06-01T03:15:17;6.67;;;5.97;;
18360;SDS011;9308;48.550;9.108;2023-06-01T03:17:43;8.53;;;6.57;;
18360;SDS011;9308;48.550;9.108;2023-06-01T03:20:08;6.60;;;6.00;;
18360;SDS011;9308;48.550;9.108;2023-06-01T03:22:48;6.33;;;5.70;;
18360;SDS011;9308;48.550;9.108;2023-06-01T03:25:14;7.00;;;6.10;;
18360;SDS011;9308;48.550;9.108;2023-06-01T03:27:39;6.20;;;5.60;;
18360;SDS011;9308;48.550;9.108;2023-06-01T03:30:06;7.10;;;6.50;;
18360;SDS011;9308;48.550;9.108;2023-06-01T03:32:38;7.83;;;6.03;;
18360;SDS011;9308;48.550;9.108;2023-06-01T03:35:05;7.00;;;6.40;;
18360;SDS011;9308;48.550;9.108;2023-06-01T03:37:36;6.40;;;5.80;;
18360;SDS011;9308;48.550;9.108;2023-06-01T03:40:03;6.40;;;5.80;;
18360;SDS011;9308;48.550;9.108;2023-06-01T03:42:40;7.13;;;6.53;;
18360;SDS011;9308;48.550;9.108;2023-06-01T03:45:06;6.67;;;6.07;;
18360;SDS011;9308;48.550;9.108;2023-06-01T03:47:32;6.33;;;5.73;;
18360;SDS011;9308;48.550;9.108;2023-06-01T03:49:58;9.83;;;6.87;;
18360;SDS011;9308;48.550;9.108;2023-06-01T03:52:25;7.30;;;6.60;;
18360;SDS011;9308;48.550;9.108;2023-06-01T03:54:50;11.43;;;10.20;;
18360;SDS011;9308;48.550;9.108;2023-06-01T03:57:16;10.77;;;9.67;;
18360;SDS011;9308;48.550;9.108;2023-06-01T03:59:42;9.63;;;8.60;;
18360;SDS011;9308;48.550;9.108;2023-06-01T04:02:07;7.23;;;6.50;;
18360;SDS011;9308;48.550;9.108;2023-06-01T04:04:35;8.53;;;6.83;;
18360;SDS011;9308;48.550;9.108;2023-06-01T04:07:01;6.50;;;5.97;;
18360;SDS011;9308;48.550;9.108;2023-06-01T04:09:28;6.50;;;5.90;;
18360;SDS011;9308;48.550;9.108;2023-06-01T04:11:54;6.17;;;5.53;;
18360;SDS011;9308;48.550;9.108;2023-06-01T04:14:20;9.97;;;8.47;;
18360;SDS011;9308;48.550;9.108;2023-06-01T04:16:46;8.87;;;7.87;;
18360;SDS011;9308;48.550;9.108;2023-06-01T04:19:11;10.70;;;9.60;;
18360;SDS011;9308;48.550;9.108;2023-06-01T04:21:37;10.03;;;9.03;;
18360;SDS011;9308;48.550;9.108;2023-06-01T04:24:02;10.03;;;9.03;;
18360;SDS011;9308;48.550;9.108;2023-06-01T04:26:28;11.67;;;8.87;;
18360;SDS011;9308;48.550;9.108;2023-06-01T04:28:58;9.13;;;8.00;;
18360;SDS011;9308;48.550;9.108;2023-06-01T04:31:24;7.43;;;6.73;;
18360;SDS011;9308;48.550;9.108;2023-06-01T04:33:49;7.93;;;7.23;;
18360;SDS011;9308;48.550;9.108;2023-06-01T04:36:24;6.80;;;6.20;;
18360;SDS011;9308;48.550;9.108;2023-06-01T04:38:52;9.43;;;6.60;;
18360;SDS011;9308;48.550;9.108;2023-06-01T04:41:22;8.63;;;7.73;;
18360;SDS011;9308;48.550;9.108;2023-06-01T04:43:48;7.43;;;6.70;;
18360;SDS011;9308;48.550;9.108;2023-06-01T04:46:21;11.80;;;5.93;;
18360;SDS011;9308;48.550;9.108;2023-06-01T04:48:49;8.80;;;5.30;;
18360;SDS011;9308;48.550;9.108;2023-06-01T04:51:17;6.97;;;5.47;;
18360;SDS011;9308;48.550;9.108;2023-06-01T04:53:47;6.23;;;5.67;;
18360;SDS011;9308;48.550;9.108;2023-06-01T04:56:17;6.50;;;5.83;;
18360;SDS011;9308;48.550;9.108;2023-06-01T04:58:44;12.47;;;5.90;;
18360;SDS011;9308;48.550;9.108;2023-06-01T05:01:13;6.10;;;5.60;;
18360;SDS011;9308;48.550;9.108;2023-06-01T05:03:40;6.80;;;6.20;;
18360;SDS011;9308;48.550;9.108;2023-06-01T05:06:07;6.47;;;5.80;;
18360;SDS011;9308;48.550;9.108;2023-06-01T05:08:32;5.90;;;5.40;;
18360;SDS011;9308;48.550;9.108;2023-06-01T05:10:58;7.43;;;5.73;;
18360;SDS011;9308;48.550;9.108;2023-06-01T05:13:24;6.80;;;5.87;;
18360;SDS011;9308;48.550;9.108;2023-06-01T05:15:49;7.10;;;5.90;;
18360;SDS011;9308;48.550;9.108;2023-06-01T05:18:15;6.30;;;5.70;;
18360;SDS011;9308;48.550;9.108;2023-06-01T05:20:40;5.73;;;5.20;;
18360;SDS011;9308;48.550;9.108;2023-06-01T05:23:06;6.70;;;4.80;;
18360;SDS011;9308;48.550;9.108;2023-06-01T05:25:32;7.30;;;5.80;;
18360;SDS011;9308;48.550;9.108;2023-06-01T05:27:57;6.83;;;6.17;;
18360;SDS011;9308;48.550;9.108;2023-06-01T05:30:23;7.77;;;7.00;;
18360;SDS011;9308;48.550;9.108;2023-06-01T05:32:48;7.20;;;6.60;;
18360;SDS011;9308;48.550;9.108;2023-06-01T05:35:13;7.20;;;6.50;;
18360;SDS011;9308;48.550;9.108;2023-06-01T05:37:39;7.00;;;6.30;;
18360;SDS011;9308;48.550;9.108;2023-06-01T05:40:05;6.90;;;6.20;;
18360;SDS011;9308;48.550;9.108;2023-06-01T05:42:33;7.10;;;6.50;;
18360;SDS011;9308;48.550;9.108;2023-06-01T05:44:58;8.97;;;7.47;;
18360;SDS011;9308;48.550;9.108;2023-06-01T05:47:23;7.27;;;6.47;;
18360;SDS011;9308;48.550;9.108;2023-06-01T05:49:49;7.27;;;6.50;;
18360;SDS011;9308;48.550;9.108;2023-06-01T05:52:16;11.60;;;7.07;;
18360;SDS011;9308;48.550;9.108;2023-06-01T05:54:41;7.13;;;6.43;;
18360;SDS011;9308;48.550;9.108;2023-06-01T05:57:07;6.77;;;6.17;;
18360;SDS011;9308;48.550;9.108;2023-06-01T05:59:33;8.67;;;6.40;;
18360;SDS011;9308;48.550;9.108;2023-06-01T06:01:58;7.60;;;6.80;;
18360;SDS011;9308;48.550;9.108;2023-06-01T06:04:24;7.47;;;6.97;;
18360;SDS011;9308;48.550;9.108;2023-06-01T06:06:49;7.90;;;7.10;;
18360;SDS011;9308;48.550;9.108;2023-06-01T06:09:15;7.53;;;6.50;;
18360;SDS011;9308;48.550;9.108;2023-06-01T06:11:41;7.97;;;6.93;;
18360;SDS011;9308;48.550;9.108;2023-06-01T06:14:06;10.63;;;7.43;;
18360;SDS011;9308;48.550;9.108;2023-06-01T06:16:32;7.80;;;7.00;;
18360;SDS011;9308;48.550;9.108;2023-06-01T06:18:57;8.47;;;6.83;;
18360;SDS011;9308;48.550;9.108;2023-06-01T06:21:22;7.60;;;6.80;;
18360;SDS011;9308;48.550;9.108;2023-06-01T06:23:48;8.13;;;6.90;;
18360;SDS011;9308;48.550;9.108;2023-06-01T06:26:14;7.07;;;6.37;;
18360;SDS011;9308;48.550;9.108;2023-06-01T06:28:40;8.20;;;7.37;;
18360;SDS011;9308;48.550;9.108;2023-06-01T06:31:05;7.40;;;6.70;;
18360;SDS011;9308;48.550;9.108;2023-06-01T06:33:31;6.70;;;6.00;;
18360;SDS011;9308;48.550;9.108;2023-06-01T06:35:56;6.17;;;5.63;;
18360;SDS011;9308;48.550;9.108;2023-06-01T06:38:22;6.50;;;5.80;;
18360;SDS011;9308;48.550;9.108;2023-06-01T06:40:47;6.47;;;4.90;;
18360;SDS011;9308;48.550;9.108;2023-06-01T06:43:13;7.37;;;6.60;;
18360;SDS011;9308;48.550;9.108;2023-06-01T06:45:40;6.17;;;5.57;;
18360;SDS011;9308;48.550;9.108;2023-06-01T06:48:06;7.37;;;5.80;;
18360;SDS011;9308;48.550;9.108;2023-06-01T06:50:31;7.00;;;5.60;;
18360;SDS011;9308;48.550;9.108;2023-06-01T06:52:57;7.83;;;5.60;;
18360;SDS011;9308;48.550;9.108;2023-06-01T06:55:24;6.17;;;5.57;;
18360;SDS011;9308;48.550;9.108;2023-06-01T06:57:49;7.83;;;5.73;;
18360;SDS011;9308;48.550;9.108;2023-06-01T07:00:15;6.73;;;5.40;;
18360;SDS011;9308;48.550;9.108;2023-06-01T07:02:41;6.47;;;5.50;;
18360;SDS011;9308;48.550;9.108;2023-06-01T07:05:07;8.03;;;5.30;;
18360;SDS011;9308;48.550;9.108;2023-06-01T07:07:33;7.70;;;6.33;;
18360;SDS011;9308;48.550;9.108;2023-06-01T07:09:59;6.20;;;5.67;;
18360;SDS011;9308;48.550;9.108;2023-06-01T07:12:24;6.80;;;4.97;;
18360;SDS011;9308;48.550;9.108;2023-06-01T07:14:50;6.50;;;5.90;;
18360;SDS011;9308;48.550;9.108;2023-06-01T07:17:15;6.23;;;5.67;;
18360;SDS011;9308;48.550;9.108;2023-06-01T07:19:41;6.30;;;5.77;;
18360;SDS011;9308;48.550;9.108;2023-06-01T07:22:06;6.37;;;5.77;;
18360;SDS011;9308;48.550;9.108;2023-06-01T07:24:32;7.43;;;6.50;;
18360;SDS011;9308;48.550;9.108;2023-06-01T07:26:58;8.27;;;6.37;;
18360;SDS011;9308;48.550;9.108;2023-06-01T07:29:23;7.63;;;5.80;;
18360;SDS011;9308;48.550;9.108;2023-06-01T07:31:52;6.70;;;5.67;;
18360;SDS011;9308;48.550;9.108;2023-06-01T07:34:18;6.33;;;5.60;;
18360;SDS011;9308;48.550;9.108;2023-06-01T07:36:45;6.50;;;5.83;;
18360;SDS011;9308;48.550;9.108;2023-06-01T07:39:11;6.97;;;5.50;;
18360;SDS011;9308;48.550;9.108;2023-06-01T07:41:36;6.23;;;5.57;;
18360;SDS011;9308;48.550;9.108;2023-06-01T07:44:02;6.43;;;5.80;;
18360;SDS011;9308;48.550;9.108;2023-06-01T07:46:27;6.90;;;5.97;;
18360;SDS011;9308;48.550;9.108;2023-06-01T07:48:53;8.47;;;5.73;;
18360;SDS011;9308;48.550;9.108;2023-06-01T07:51:18;6.27;;;5.67;;
18360;SDS011;9308;48.550;9.108;2023-06-01T07:53:45;7.63;;;5.43;;
18360;SDS011;9308;48.550;9.108;2023-06-01T07:56:10;6.20;;;5.60;;
18360;SDS011;9308;48.550;9.108;2023-06-01T07:58:36;6.17;;;5.47;;
18360;SDS011;9308;48.550;9.108;2023-06-01T08:01:03;5.93;;;5.43;;
18360;SDS011;9308;48.550;9.108;2023-06-01T08:03:29;7.30;;;5.80;;
18360;SDS011;9308;48.550;9.108;2023-06-01T08:06:01;6.23;;;5.63;;
18360;SDS011;9308;48.550;9.108;2023-06-01T08:08:30;6.77;;;5.63;;
18360;SDS011;9308;48.550;9.108;2023-06-01T08:10:56;6.67;;;5.87;;
18360;SDS011;9308;48.550;9.108;2023-06-01T08:13:22;6.07;;;5.33;;
18360;SDS011;9308;48.550;9.108;2023-06-01T08:15:50;6.37;;;5.53;;
18360;SDS011;9308;48.550;9.108;2023-06-01T08:18:18;7.90;;;5.73;;
18360;SDS011;9308;48.550;9.108;2023-06-01T08:20:45;6.60;;;6.00;;
18360;SDS011;9308;48.550;9.108;2023-06-01T08:23:11;8.93;;;5.67;;
18360;SDS011;9308;48.550;9.108;2023-06-01T08:25:36;6.40;;;5.60;;
18360;SDS011;9308;48.550;9.108;2023-06-01T08:28:02;7.83;;;6.50;;
18360;SDS011;9308;48.550;9.108;2023-06-01T08:30:28;6.53;;;5.47;;
18360;SDS011;9308;48.550;9.108;2023-06-01T08:32:53;7.23;;;5.83;;
18360;SDS011;9308;48.550;9.108;2023-06-01T08:35:19;6.97;;;6.03;;
18360;SDS011;9308;48.550;9.108;2023-06-01T08:37:44;7.90;;;6.60;;
18360;SDS011;9308;48.550;9.108;2023-06-01T08:40:12;6.10;;;5.50;;
18360;SDS011;9308;48.550;9.108;2023-06-01T08:45:18;6.53;;;5.73;;
18360;SDS011;9308;48.550;9.108;2023-06-01T08:47:45;7.23;;;6.40;;
18360;SDS011;9308;48.550;9.108;2023-06-01T08:50:11;8.67;;;6.13;;
18360;SDS011;9308;48.550;9.108;2023-06-01T08:52:37;8.07;;;6.20;;
18360;SDS011;9308;48.550;9.108;2023-06-01T08:55:04;7.10;;;5.77;;
18360;SDS011;9308;48.550;9.108;2023-06-01T08:57:30;6.37;;;5.80;;
18360;SDS011;9308;48.550;9.108;2023-06-01T08:59:56;10.20;;;6.50;;
18360;SDS011;9308;48.550;9.108;2023-06-01T09:02:23;6.33;;;5.70;;
18360;SDS011;9308;48.550;9.108;2023-06-01T09:04:49;7.10;;;5.93;;
18360;SDS011;9308;48.550;9.108;2023-06-01T09:07:15;7.00;;;5.93;;
18360;SDS011;9308;48.550;9.108;2023-06-01T09:09:41;6.10;;;5.53;;
18360;SDS011;9308;48.550;9.108;2023-06-01T09:12:27;6.70;;;6.00;;
18360;SDS011;9308;48.550;9.108;2023-06-01T09:15:11;8.20;;;6.30;;
18360;SDS011;9308;48.550;9.108;2023-06-01T09:17:38;7.63;;;5.83;;
18360;SDS011;9308;48.550;9.108;2023-06-01T09:20:04;6.10;;;5.50;;
18360;SDS011;9308;48.550;9.108;2023-06-01T09:22:38;9.27;;;6.80;;
18360;SDS011;9308;48.550;9.108;2023-06-01T09:25:04;6.93;;;6.23;;
18360;SDS011;9308;48.550;9.108;2023-06-01T09:27:30;7.33;;;6.50;;
18360;SDS011;9308;48.550;9.108;2023-06-01T09:30:08;6.30;;;5.77;;
18360;SDS011;9308;48.550;9.108;2023-06-01T09:32:33;6.43;;;5.77;;
18360;SDS011;9308;48.550;9.108;2023-06-01T09:34:59;7.20;;;5.60;;
18360;SDS011;9308;48.550;9.108;2023-06-01T09:37:24;8.10;;;6.20;;
18360;SDS011;9308;48.550;9.108;2023-06-01T09:39:50;7.43;;;6.73;;
18360;SDS011;9308;48.550;9.108;2023-06-01T09:42:16;6.53;;;5.93;;
18360;SDS011;9308;48.550;9.108;2023-06-01T09:44:42;8.30;;;6.10;;
18360;SDS011;9308;48.550;9.108;2023-06-01T09:47:09;8.33;;;6.13;;
18360;SDS011;9308;48.550;9.108;2023-06-01T09:49:38;9.67;;;7.17;;
18360;SDS011;9308;48.550;9.108;2023-06-01T09:54:38;8.07;;;5.83;;
18360;SDS011;9308;48.550;9.108;2023-06-01T09:57:05;7.60;;;6.87;;
18360;SDS011;9308;48.550;9.108;2023-06-01T09:59:37;7.10;;;6.33;;
18360;SDS011;9308;48.550;9.108;2023-06-01T10:02:04;7.57;;;6.87;;
18360;SDS011;9308;48.550;9.108;2023-06-01T10:04:37;7.17;;;6.57;;
18360;SDS011;9308;48.550;9.108;2023-06-01T10:07:05;6.93;;;6.30;;
18360;SDS011;9308;48.550;9.108;2023-06-01T10:09:31;6.43;;;5.93;;
18360;SDS011;9308;48.550;9.108;2023-06-01T10:12:00;7.80;;;6.40;;
18360;SDS011;9308;48.550;9.108;2023-06-01T10:14:26;7.10;;;6.50;;
18360;SDS011;9308;48.550;9.108;2023-06-01T10:16:53;6.73;;;5.90;;
18360;SDS011;9308;48.550;9.108;2023-06-01T10:19:19;7.37;;;6.53;;
18360;SDS011;9308;48.550;9.108;2023-06-01T10:21:46;7.60;;;6.70;;
18360;SDS011;9308;48.550;9.108;2023-06-01T10:24:18;8.20;;;6.60;;
18360;SDS011;9308;48.550;9.108;2023-06-01T10:26:58;6.57;;;6.07;;
18360;SDS011;9308;48.550;9.108;2023-06-01T10:29:34;6.43;;;5.90;;
18360;SDS011;9308;48.550;9.108;2023-06-01T10:32:00;6.37;;;5.87;;
18360;SDS011;9308;48.550;9.108;2023-06-01T10:34:36;7.47;;;6.20;;
18360;SDS011;9308;48.550;9.108;2023-06-01T10:39:33;6.57;;;5.97;;
18360;SDS011;9308;48.550;9.108;2023-06-01T10:42:33;6.93;;;5.90;;
18360;SDS011;9308;48.550;9.108;2023-06-01T10:44:45;7.60;;;6.70;;
18360;SDS011;9308;48.550;9.108;2023-06-01T10:52:27;8.17;;;5.73;;
18360;SDS011;9308;48.550;9.108;2023-06-01T10:57:36;6.37;;;5.77;;
18360;SDS011;9308;48.550;9.108;2023-06-01T11:02:46;6.10;;;5.57;;
18360;SDS011;9308;48.550;9.108;2023-06-01T11:13:19;6.43;;;5.83;;
18360;SDS011;9308;48.550;9.108;2023-06-01T11:21:16;6.90;;;6.30;;
18360;SDS011;9308;48.550;9.108;2023-06-01T11:23:46;11.50;;;7.13;;
18360;SDS011;9308;48.550;9.108;2023-06-01T11:26:16;5.80;;;5.40;;
18360;SDS011;9308;48.550;9.108;2023-06-01T11:28:43;6.63;;;5.97;;
18360;SDS011;9308;48.550;9.108;2023-06-01T11:31:10;6.73;;;6.13;;
18360;SDS011;9308;48.550;9.108;2023-06-01T11:33:37;6.97;;;6.27;;
18360;SDS011;9308;48.550;9.108;2023-06-01T11:36:08;9.80;;;6.17;;
18360;SDS011;9308;48.550;9.108;2023-06-01T11:38:39;6.80;;;5.93;;
18360;SDS011;9308;48.550;9.108;2023-06-01T11:41:05;7.13;;;6.43;;
18360;SDS011;9308;48.550;9.108;2023-06-01T11:43:32;7.47;;;6.37;;
18360;SDS011;9308;48.550;9.108;2023-06-01T11:46:02;7.20;;;6.50;;
18360;SDS011;9308;48.550;9.108;2023-06-01T11:48:28;7.07;;;6.07;;
18360;SDS011;9308;48.550;9.108;2023-06-01T11:50:54;6.77;;;6.00;;
18360;SDS011;9308;48.550;9.108;2023-06-01T11:53:21;6.53;;;6.00;;
18360;SDS011;9308;48.550;9.108;2023-06-01T11:58:20;6.10;;;5.53;;
18360;SDS011;9308;48.550;9.108;2023-06-01T12:00:55;7.00;;;6.40;;
18360;SDS011;9308;48.550;9.108;2023-06-01T12:03:22;8.67;;;6.10;;
18360;SDS011;9308;48.550;9.108;2023-06-01T12:05:51;7.00;;;6.40;;
18360;SDS011;9308;48.550;9.108;2023-06-01T12:08:18;7.57;;;6.83;;
18360;SDS011;9308;48.550;9.108;2023-06-01T12:10:46;7.77;;;6.90;;
18360;SDS011;9308;48.550;9.108;2023-06-01T12:13:13;6.67;;;6.07;;
18360;SDS011;9308;48.550;9.108;2023-06-01T12:15:39;6.23;;;5.73;;
18360;SDS011;9308;48.550;9.108;2023-06-01T12:18:04;5.97;;;5.50;;
18360;SDS011;9308;48.550;9.108;2023-06-01T12:20:31;6.37;;;5.77;;
18360;SDS011;9308;48.550;9.108;2023-06-01T12:23:03;6.73;;;6.07;;
18360;SDS011;9308;48.550;9.108;2023-06-01T12:25:51;6.07;;;5.50;;
18360;SDS011;9308;48.550;9.108;2023-06-01T12:28:16;6.80;;;5.73;;
18360;SDS011;9308;48.550;9.108;2023-06-01T12:30:45;6.30;;;5.80;;
18360;SDS011;9308;48.550;9.108;2023-06-01T12:33:45;7.13;;;6.43;;
18360;SDS011;9308;48.550;9.108;2023-06-01T12:36:04;9.03;;;6.17;;
18360;SDS011;9308;48.550;9.108;2023-06-01T12:38:50;6.47;;;5.97;;
18360;SDS011;9308;48.550;9.108;2023-06-01T12:41:16;6.20;;;5.80;;
18360;SDS011;9308;48.550;9.108;2023-06-01T12:43:45;6.70;;;6.00;;
18360;SDS011;9308;48.550;9.108;2023-06-01T12:49:13;8.50;;;6.57;;
18360;SDS011;9308;48.550;9.108;2023-06-01T12:51:40;6.60;;;6.10;;
18360;SDS011;9308;48.550;9.108;2023-06-01T12:54:05;7.20;;;6.60;;
18360;SDS011;9308;48.550;9.108;2023-06-01T12:56:30;7.27;;;5.77;;
18360;SDS011;9308;48.550;9.108;2023-06-01T12:58:56;6.47;;;5.87;;
18360;SDS011;9308;48.550;9.108;2023-06-01T13:01:21;6.53;;;5.93;;
18360;SDS011;9308;48.550;9.108;2023-06-01T13:03:47;6.20;;;5.60;;
18360;SDS011;9308;48.550;9.108;2023-06-01T13:06:14;5.53;;;5.03;;
18360;SDS011;9308;48.550;9.108;2023-06-01T13:08:42;5.10;;;4.70;;
18360;SDS011;9308;48.550;9.108;2023-06-01T13:11:07;6.13;;;5.50;;
18360;SDS011;9308;48.550;9.108;2023-06-01T13:13:33;5.73;;;5.23;;
18360;SDS011;9308;48.550;9.108;2023-06-01T13:15:59;5.57;;;5.07;;
18360;SDS011;9308;48.550;9.108;2023-06-01T13:18:25;6.20;;;5.70;;
18360;SDS011;9308;48.550;9.108;2023-06-01T13:20:50;6.03;;;5.53;;
18360;SDS011;9308;48.550;9.108;2023-06-01T13:23:16;6.07;;;5.57;;
18360;SDS011;9308;48.550;9.108;2023-06-01T13:25:43;6.00;;;5.40;;
18360;SDS011;9308;48.550;9.108;2023-06-01T13:28:08;5.97;;;5.50;;
18360;SDS011;9308;48.550;9.108;2023-06-01T13:30:34;6.83;;;6.17;;
18360;SDS011;9308;48.550;9.108;2023-06-01T13:33:00;7.00;;;6.30;;
18360;SDS011;9308;48.550;9.108;2023-06-01T13:35:26;6.10;;;5.60;;
18360;SDS011;9308;48.550;9.108;2023-06-01T13:37:52;6.97;;;6.30;;
18360;SDS011;9308;48.550;9.108;2023-06-01T13:40:18;6.83;;;6.23;;
18360;SDS011;9308;48.550;9.108;2023-06-01T13:42:48;7.20;;;6.50;;
18360;SDS011;9308;48.550;9.108;2023-06-01T13:45:14;6.63;;;5.97;;
18360;SDS011;9308;48.550;9.108;2023-06-01T13:47:39;5.90;;;5.27;;
18360;SDS011;9308;48.550;9.108;2023-06-01T13:50:06;7.00;;;5.80;;
18360;SDS011;9308;48.550;9.108;2023-06-01T13:52:31;6.13;;;5.47;;
18360;SDS011;9308;48.550;9.108;2023-06-01T13:54:57;8.73;;;6.20;;
18360;SDS011;9308;48.550;9.108;2023-06-01T13:57:22;6.30;;;5.80;;
18360;SDS011;9308;48.550;9.108;2023-06-01T13:59:48;7.07;;;6.37;;
18360;SDS011;9308;48.550;9.108;2023-06-01T14:02:14;6.10;;;5.50;;
18360;SDS011;9308;48.550;9.108;2023-06-01T14:04:40;6.67;;;6.17;;
18360;SDS011;9308;48.550;9.108;2023-06-01T14:07:05;6.57;;;5.97;;
18360;SDS011;9308;48.550;9.108;2023-06-01T14:09:31;6.30;;;5.80;;
18360;SDS011;9308;48.550;9.108;2023-06-01T14:11:56;6.80;;;6.17;;
18360;SDS011;9308;48.550;9.108;2023-06-01T14:14:22;6.20;;;5.70;;
18360;SDS011;9308;48.550;9.108;2023-06-01T14:16:47;6.37;;;5.87;;
18360;SDS011;9308;48.550;9.108;2023-06-01T14:19:13;6.93;;;6.30;;
18360;SDS011;9308;48.550;9.108;2023-06-01T14:21:38;6.73;;;6.03;;
18360;SDS011;9308;48.550;9.108;2023-06-01T14:24:04;6.10;;;5.50;;
18360;SDS011;9308;48.550;9.108;2023-06-01T14:26:29;7.07;;;6.37;;
18360;SDS011;9308;48.550;9.108;2023-06-01T14:28:55;8.10;;;6.00;;
18360;SDS011;9308;48.550;9.108;2023-06-01T14:31:20;6.03;;;5.53;;
18360;SDS011;9308;48.550;9.108;2023-06-01T14:33:46;6.20;;;5.67;;
18360;SDS011;9308;48.550;9.108;2023-06-01T14:36:13;6.00;;;5.50;;
18360;SDS011;9308;48.550;9.108;2023-06-01T14:38:38;6.57;;;5.83;;
18360;SDS011;9308;48.550;9.108;2023-06-01T14:41:04;5.70;;;5.20;;
18360;SDS011;9308;48.550;9.108;2023-06-01T14:43:29;6.77;;;6.10;;
18360;SDS011;9308;48.550;9.108;2023-06-01T14:45:55;7.03;;;6.33;;
18360;SDS011;9308;48.550;9.108;2023-06-01T14:48:21;6.47;;;5.97;;
18360;SDS011;9308;48.550;9.108;2023-06-01T14:50:47;6.00;;;5.50;;
18360;SDS011;9308;48.550;9.108;2023-06-01T14:53:12;6.90;;;6.30;;
18360;SDS011;9308;48.550;9.108;2023-06-01T14:55:38;6.80;;;6.20;;
18360;SDS011;9308;48.550;9.108;2023-06-01T14:58:05;6.40;;;5.80;;
18360;SDS011;9308;48.550;9.108;2023-06-01T15:00:31;6.47;;;5.87;;
18360;SDS011;9308;48.550;9.108;2023-06-01T15:02:56;7.80;;;6.53;;
18360;SDS011;9308;48.550;9.108;2023-06-01T15:05:21;6.87;;;6.17;;
18360;SDS011;9308;48.550;9.108;2023-06-01T15:07:47;6.40;;;5.80;;
18360;SDS011;9308;48.550;9.108;2023-06-01T15:10:12;6.03;;;5.53;;
18360;SDS011;9308;48.550;9.108;2023-06-01T15:12:37;7.10;;;6.30;;
18360;SDS011;9308;48.550;9.108;2023-06-01T15:15:03;5.93;;;5.40;;
18360;SDS011;9308;48.550;9.108;2023-06-01T15:17:29;7.67;;;5.53;;
18360;SDS011;9308;48.550;9.108;2023-06-01T15:19:54;6.80;;;6.20;;
18360;SDS011;9308;48.550;9.108;2023-06-01T15:22:20;6.17;;;5.67;;
18360;SDS011;9308;48.550;9.108;2023-06-01T15:24:45;6.83;;;6.23;;
18360;SDS011;9308;48.550;9.108;2023-06-01T15:27:10;5.90;;;5.37;;
18360;SDS011;9308;48.550;9.108;2023-06-01T15:29:36;7.57;;;5.83;;
18360;SDS011;9308;48.550;9.108;2023-06-01T15:32:02;5.60;;;5.03;;
18360;SDS011;9308;48.550;9.108;2023-06-01T15:34:27;7.13;;;6.40;;
18360;SDS011;9308;48.550;9.108;2023-06-01T15:36:53;6.23;;;5.30;;
18360;SDS011;9308;48.550;9.108;2023-06-01T15:39:20;5.87;;;5.33;;
18360;SDS011;9308;48.550;9.108;2023-06-01T15:41:46;6.37;;;5.57;;
18360;SDS011;9308;48.550;9.108;2023-06-01T15:44:12;6.07;;;5.50;;
18360;SDS011;9308;48.550;9.108;2023-06-01T15:46:38;6.50;;;5.73;;
18360;SDS011;9308;48.550;9.108;2023-06-01T15:49:04;7.00;;;5.67;;